sensor_id;sensor_type;location;lat;lon;timestamp;P1;durP1;ratioP1;P2;durP2;ratioP2
20824;SDS011;10573;50.936;6.978;2022-08-18T00:00:05;24.45;;;21.85;;
20824;SDS011;10573;50.936;6.978;2022-08-18T00:02:35;26.67;;;23.20;;
20824;SDS011;10573;50.936;6.978;2022-08-18T00:05:05;27.97;;;22.30;;
20824;SDS011;10573;50.936;6.978;2022-08-18T00:07:31;27.30;;;24.30;;
20824;SDS011;10573;50.936;6.978;2022-08-18T00:09:58;31.50;;;25.75;;
20824;SDS011;10573;50.936;6.978;2022-08-18T00:12:26;32.45;;;26.95;;
20824;SDS011;10573;50.936;6.978;2022-08-18T00:14:54;33.00;;;27.92;;
20824;SDS011;10573;50.936;6.978;2022-08-18T00:17:20;37.47;;;30.40;;
20824;SDS011;10573;50.936;6.978;2022-08-18T00:19:47;37.95;;;30.63;;
20824;SDS011;10573;50.936;6.978;2022-08-18T00:22:13;40.60;;;32.27;;
20824;SDS011;10573;50.936;6.978;2022-08-18T00:24:45;40.47;;;31.83;;
20824;SDS011;10573;50.936;6.978;2022-08-18T00:27:12;36.85;;;31.75;;
20824;SDS011;10573;50.936;6.978;2022-08-18T00:29:38;37.70;;;31.60;;
20824;SDS011;10573;50.936;6.978;2022-08-18T00:32:14;36.65;;;31.70;;
20824;SDS011;10573;50.936;6.978;2022-08-18T00:34:41;38.25;;;30.42;;
20824;SDS011;10573;50.936;6.978;2022-08-18T00:37:07;38.50;;;31.67;;
20824;SDS011;10573;50.936;6.978;2022-08-18T00:39:32;34.73;;;30.07;;
20824;SDS011;10573;50.936;6.978;2022-08-18T00:41:59;38.23;;;31.97;;
20824;SDS011;10573;50.936;6.978;2022-08-18T00:44:35;40.80;;;32.63;;
20824;SDS011;10573;50.936;6.978;2022-08-18T00:47:00;42.33;;;33.30;;
20824;SDS011;10573;50.936;6.978;2022-08-18T00:49:26;42.10;;;34.03;;
20824;SDS011;10573;50.936;6.978;2022-08-18T00:51:51;45.53;;;33.83;;
20824;SDS011;10573;50.936;6.978;2022-08-18T00:54:18;40.05;;;32.72;;
20824;SDS011;10573;50.936;6.978;2022-08-18T00:56:48;42.75;;;35.55;;
20824;SDS011;10573;50.936;6.978;2022-08-18T00:59:26;47.05;;;37.05;;
20824;SDS011;10573;50.936;6.978;2022-08-18T01:01:57;45.08;;;35.33;;
20824;SDS011;10573;50.936;6.978;2022-08-18T01:07:38;43.80;;;36.22;;
20824;SDS011;10573;50.936;6.978;2022-08-18T01:10:15;44.20;;;34.75;;
20824;SDS011;10573;50.936;6.978;2022-08-18T01:12:48;46.55;;;35.67;;
20824;SDS011;10573;50.936;6.978;2022-08-18T01:15:16;43.13;;;34.10;;
20824;SDS011;10573;50.936;6.978;2022-08-18T01:17:43;41.42;;;32.05;;
20824;SDS011;10573;50.936;6.978;2022-08-18T01:20:32;41.67;;;33.00;;
20824;SDS011;10573;50.936;6.978;2022-08-18T01:23:21;41.10;;;31.95;;
20824;SDS011;10573;50.936;6.978;2022-08-18T01:25:47;42.45;;;32.33;;
20824;SDS011;10573;50.936;6.978;2022-08-18T01:28:40;40.25;;;31.00;;
20824;SDS011;10573;50.936;6.978;2022-08-18T01:31:08;40.78;;;32.10;;
20824;SDS011;10573;50.936;6.978;2022-08-18T01:33:38;40.78;;;31.30;;
20824;SDS011;10573;50.936;6.978;2022-08-18T01:38:43;40.03;;;31.53;;
20824;SDS011;10573;50.936;6.978;2022-08-18T01:41:11;42.53;;;31.92;;
20824;SDS011;10573;50.936;6.978;2022-08-18T01:43:37;42.47;;;32.33;;
20824;SDS011;10573;50.936;6.978;2022-08-18T01:46:02;44.70;;;33.47;;
20824;SDS011;10573;50.936;6.978;2022-08-18T01:48:29;46.33;;;33.72;;
20824;SDS011;10573;50.936;6.978;2022-08-18T01:50:58;45.60;;;33.78;;
20824;SDS011;10573;50.936;6.978;2022-08-18T01:53:24;41.17;;;32.65;;
20824;SDS011;10573;50.936;6.978;2022-08-18T01:55:51;47.00;;;34.70;;
20824;SDS011;10573;50.936;6.978;2022-08-18T01:58:17;43.77;;;33.90;;
20824;SDS011;10573;50.936;6.978;2022-08-18T02:00:43;47.10;;;35.10;;
20824;SDS011;10573;50.936;6.978;2022-08-18T02:03:10;48.60;;;34.87;;
20824;SDS011;10573;50.936;6.978;2022-08-18T02:05:40;49.53;;;36.70;;
20824;SDS011;10573;50.936;6.978;2022-08-18T02:08:09;47.95;;;36.53;;
20824;SDS011;10573;50.936;6.978;2022-08-18T02:10:36;50.22;;;38.88;;
20824;SDS011;10573;50.936;6.978;2022-08-18T02:13:03;49.83;;;37.03;;
20824;SDS011;10573;50.936;6.978;2022-08-18T02:15:30;44.88;;;35.83;;
20824;SDS011;10573;50.936;6.978;2022-08-18T02:17:56;44.23;;;34.50;;
20824;SDS011;10573;50.936;6.978;2022-08-18T02:20:22;41.85;;;32.83;;
20824;SDS011;10573;50.936;6.978;2022-08-18T02:22:48;40.58;;;31.52;;
20824;SDS011;10573;50.936;6.978;2022-08-18T02:25:15;40.08;;;30.35;;
20824;SDS011;10573;50.936;6.978;2022-08-18T02:27:41;37.42;;;28.92;;
20824;SDS011;10573;50.936;6.978;2022-08-18T02:30:08;37.80;;;29.40;;
20824;SDS011;10573;50.936;6.978;2022-08-18T02:32:36;39.03;;;29.30;;
20824;SDS011;10573;50.936;6.978;2022-08-18T02:35:02;38.67;;;29.57;;
20824;SDS011;10573;50.936;6.978;2022-08-18T02:37:30;40.72;;;30.55;;
20824;SDS011;10573;50.936;6.978;2022-08-18T02:39:55;37.50;;;28.30;;
20824;SDS011;10573;50.936;6.978;2022-08-18T02:42:21;35.97;;;28.45;;
20824;SDS011;10573;50.936;6.978;2022-08-18T02:44:46;34.73;;;27.63;;
20824;SDS011;10573;50.936;6.978;2022-08-18T02:47:12;37.90;;;28.07;;
20824;SDS011;10573;50.936;6.978;2022-08-18T02:49:37;35.08;;;28.10;;
20824;SDS011;10573;50.936;6.978;2022-08-18T02:52:03;37.37;;;29.27;;
20824;SDS011;10573;50.936;6.978;2022-08-18T02:54:28;36.07;;;28.93;;
20824;SDS011;10573;50.936;6.978;2022-08-18T02:56:54;35.30;;;27.92;;
20824;SDS011;10573;50.936;6.978;2022-08-18T02:59:22;42.20;;;32.30;;
20824;SDS011;10573;50.936;6.978;2022-08-18T03:01:52;42.72;;;32.78;;
20824;SDS011;10573;50.936;6.978;2022-08-18T03:04:19;46.10;;;34.10;;
20824;SDS011;10573;50.936;6.978;2022-08-18T03:06:47;45.00;;;33.15;;
20824;SDS011;10573;50.936;6.978;2022-08-18T03:09:14;43.83;;;34.28;;
20824;SDS011;10573;50.936;6.978;2022-08-18T03:11:41;44.75;;;32.67;;
20824;SDS011;10573;50.936;6.978;2022-08-18T03:14:07;45.72;;;33.67;;
20824;SDS011;10573;50.936;6.978;2022-08-18T03:16:33;44.77;;;32.23;;
20824;SDS011;10573;50.936;6.978;2022-08-18T03:18:59;43.30;;;33.28;;
20824;SDS011;10573;50.936;6.978;2022-08-18T03:21:26;42.87;;;32.27;;
20824;SDS011;10573;50.936;6.978;2022-08-18T03:23:54;44.35;;;32.45;;
20824;SDS011;10573;50.936;6.978;2022-08-18T03:26:21;41.50;;;32.30;;
20824;SDS011;10573;50.936;6.978;2022-08-18T03:28:49;48.38;;;35.33;;
20824;SDS011;10573;50.936;6.978;2022-08-18T03:31:17;45.78;;;35.33;;
20824;SDS011;10573;50.936;6.978;2022-08-18T03:33:44;53.57;;;38.27;;
20824;SDS011;10573;50.936;6.978;2022-08-18T03:36:15;52.55;;;38.75;;
20824;SDS011;10573;50.936;6.978;2022-08-18T03:38:43;51.77;;;39.13;;
20824;SDS011;10573;50.936;6.978;2022-08-18T03:41:10;51.78;;;39.60;;
20824;SDS011;10573;50.936;6.978;2022-08-18T03:43:38;49.10;;;37.92;;
20824;SDS011;10573;50.936;6.978;2022-08-18T03:46:06;48.72;;;38.20;;
20824;SDS011;10573;50.936;6.978;2022-08-18T03:48:36;45.03;;;36.08;;
20824;SDS011;10573;50.936;6.978;2022-08-18T03:51:05;45.07;;;36.43;;
20824;SDS011;10573;50.936;6.978;2022-08-18T03:53:38;44.95;;;35.15;;
20824;SDS011;10573;50.936;6.978;2022-08-18T03:56:12;44.92;;;34.47;;
20824;SDS011;10573;50.936;6.978;2022-08-18T03:58:44;40.75;;;33.83;;
20824;SDS011;10573;50.936;6.978;2022-08-18T04:01:13;42.72;;;33.92;;
20824;SDS011;10573;50.936;6.978;2022-08-18T04:03:43;44.35;;;34.13;;
20824;SDS011;10573;50.936;6.978;2022-08-18T04:06:14;42.73;;;35.23;;
20824;SDS011;10573;50.936;6.978;2022-08-18T04:08:44;46.97;;;36.88;;
20824;SDS011;10573;50.936;6.978;2022-08-18T04:11:13;43.47;;;34.13;;
20824;SDS011;10573;50.936;6.978;2022-08-18T04:13:39;52.87;;;39.97;;
20824;SDS011;10573;50.936;6.978;2022-08-18T04:16:05;52.60;;;39.30;;
20824;SDS011;10573;50.936;6.978;2022-08-18T04:18:31;56.13;;;40.83;;
20824;SDS011;10573;50.936;6.978;2022-08-18T04:21:00;55.33;;;40.08;;
20824;SDS011;10573;50.936;6.978;2022-08-18T04:23:33;53.73;;;40.33;;
20824;SDS011;10573;50.936;6.978;2022-08-18T04:26:02;53.73;;;39.93;;
20824;SDS011;10573;50.936;6.978;2022-08-18T04:28:29;62.35;;;42.50;;
20824;SDS011;10573;50.936;6.978;2022-08-18T04:30:55;73.13;;;44.17;;
20824;SDS011;10573;50.936;6.978;2022-08-18T04:33:24;71.57;;;46.47;;
20824;SDS011;10573;50.936;6.978;2022-08-18T04:35:50;77.25;;;47.50;;
20824;SDS011;10573;50.936;6.978;2022-08-18T04:38:15;76.50;;;48.23;;
20824;SDS011;10573;50.936;6.978;2022-08-18T04:40:41;82.40;;;51.00;;
20824;SDS011;10573;50.936;6.978;2022-08-18T04:43:07;87.53;;;50.95;;
20824;SDS011;10573;50.936;6.978;2022-08-18T04:45:39;96.40;;;54.70;;
20824;SDS011;10573;50.936;6.978;2022-08-18T04:48:09;94.23;;;53.93;;
20824;SDS011;10573;50.936;6.978;2022-08-18T04:50:35;102.18;;;56.30;;
20824;SDS011;10573;50.936;6.978;2022-08-18T04:53:02;109.55;;;57.67;;
20824;SDS011;10573;50.936;6.978;2022-08-18T04:55:47;115.60;;;61.30;;
20824;SDS011;10573;50.936;6.978;2022-08-18T04:58:15;122.60;;;62.72;;
20824;SDS011;10573;50.936;6.978;2022-08-18T05:00:43;123.00;;;63.15;;
20824;SDS011;10573;50.936;6.978;2022-08-18T05:03:11;128.63;;;63.40;;
20824;SDS011;10573;50.936;6.978;2022-08-18T05:05:38;133.93;;;65.38;;
20824;SDS011;10573;50.936;6.978;2022-08-18T05:08:03;130.02;;;64.72;;
20824;SDS011;10573;50.936;6.978;2022-08-18T05:10:29;125.83;;;63.87;;
20824;SDS011;10573;50.936;6.978;2022-08-18T05:12:55;124.35;;;62.78;;
20824;SDS011;10573;50.936;6.978;2022-08-18T05:15:21;126.82;;;63.70;;
20824;SDS011;10573;50.936;6.978;2022-08-18T05:17:47;120.43;;;61.95;;
20824;SDS011;10573;50.936;6.978;2022-08-18T05:20:12;121.83;;;61.07;;
20824;SDS011;10573;50.936;6.978;2022-08-18T05:22:38;123.17;;;61.63;;
20824;SDS011;10573;50.936;6.978;2022-08-18T05:25:08;119.70;;;60.60;;
20824;SDS011;10573;50.936;6.978;2022-08-18T05:27:37;123.03;;;61.15;;
20824;SDS011;10573;50.936;6.978;2022-08-18T05:30:05;123.22;;;60.50;;
20824;SDS011;10573;50.936;6.978;2022-08-18T05:32:41;130.57;;;62.28;;
20824;SDS011;10573;50.936;6.978;2022-08-18T05:35:10;127.07;;;61.38;;
20824;SDS011;10573;50.936;6.978;2022-08-18T05:37:56;123.22;;;60.33;;
20824;SDS011;10573;50.936;6.978;2022-08-18T05:40:25;127.70;;;61.30;;
20824;SDS011;10573;50.936;6.978;2022-08-18T05:42:52;126.63;;;61.47;;
20824;SDS011;10573;50.936;6.978;2022-08-18T05:45:21;128.23;;;63.22;;
20824;SDS011;10573;50.936;6.978;2022-08-18T05:47:47;128.87;;;64.23;;
20824;SDS011;10573;50.936;6.978;2022-08-18T05:50:15;130.07;;;64.80;;
20824;SDS011;10573;50.936;6.978;2022-08-18T05:52:49;141.85;;;66.32;;
20824;SDS011;10573;50.936;6.978;2022-08-18T05:55:22;141.23;;;68.75;;
20824;SDS011;10573;50.936;6.978;2022-08-18T05:58:30;135.88;;;65.90;;
20824;SDS011;10573;50.936;6.978;2022-08-18T06:01:25;131.43;;;64.82;;
20824;SDS011;10573;50.936;6.978;2022-08-18T06:07:07;130.43;;;65.43;;
20824;SDS011;10573;50.936;6.978;2022-08-18T06:12:21;133.53;;;65.13;;
20824;SDS011;10573;50.936;6.978;2022-08-18T06:14:51;131.60;;;62.72;;
20824;SDS011;10573;50.936;6.978;2022-08-18T06:17:35;128.15;;;62.20;;
20824;SDS011;10573;50.936;6.978;2022-08-18T06:29:02;125.17;;;61.80;;
20824;SDS011;10573;50.936;6.978;2022-08-18T06:31:58;116.68;;;59.30;;
20824;SDS011;10573;50.936;6.978;2022-08-18T06:34:41;119.95;;;60.40;;
20824;SDS011;10573;50.936;6.978;2022-08-18T06:40:39;119.10;;;60.58;;
20824;SDS011;10573;50.936;6.978;2022-08-18T06:43:07;114.40;;;59.17;;
20824;SDS011;10573;50.936;6.978;2022-08-18T06:45:37;112.40;;;55.97;;
20824;SDS011;10573;50.936;6.978;2022-08-18T06:48:09;111.88;;;55.92;;
20824;SDS011;10573;50.936;6.978;2022-08-18T06:50:51;113.80;;;56.38;;
20824;SDS011;10573;50.936;6.978;2022-08-18T06:53:20;110.70;;;53.38;;
20824;SDS011;10573;50.936;6.978;2022-08-18T06:55:47;112.40;;;53.42;;
20824;SDS011;10573;50.936;6.978;2022-08-18T07:06:22;117.30;;;55.10;;
20824;SDS011;10573;50.936;6.978;2022-08-18T07:08:45;117.03;;;54.90;;
20824;SDS011;10573;50.936;6.978;2022-08-18T07:11:20;111.10;;;51.90;;
20824;SDS011;10573;50.936;6.978;2022-08-18T07:13:47;104.28;;;49.92;;
20824;SDS011;10573;50.936;6.978;2022-08-18T07:16:31;95.85;;;47.25;;
20824;SDS011;10573;50.936;6.978;2022-08-18T07:19:11;92.63;;;47.17;;
20824;SDS011;10573;50.936;6.978;2022-08-18T07:21:40;100.70;;;47.10;;
20824;SDS011;10573;50.936;6.978;2022-08-18T07:26:59;84.13;;;44.20;;
20824;SDS011;10573;50.936;6.978;2022-08-18T07:29:31;83.47;;;45.50;;
20824;SDS011;10573;50.936;6.978;2022-08-18T07:32:00;89.53;;;47.45;;
20824;SDS011;10573;50.936;6.978;2022-08-18T07:34:33;86.05;;;47.92;;
20824;SDS011;10573;50.936;6.978;2022-08-18T07:37:14;89.40;;;46.45;;
20824;SDS011;10573;50.936;6.978;2022-08-18T07:42:23;72.85;;;40.78;;
20824;SDS011;10573;50.936;6.978;2022-08-18T07:47:50;61.85;;;37.90;;
20824;SDS011;10573;50.936;6.978;2022-08-18T07:50:21;63.33;;;37.63;;
20824;SDS011;10573;50.936;6.978;2022-08-18T07:52:52;56.63;;;35.92;;
20824;SDS011;10573;50.936;6.978;2022-08-18T07:55:33;55.05;;;34.75;;
20824;SDS011;10573;50.936;6.978;2022-08-18T08:00:54;51.97;;;34.35;;
20824;SDS011;10573;50.936;6.978;2022-08-18T08:06:18;54.53;;;32.85;;
20824;SDS011;10573;50.936;6.978;2022-08-18T08:14:13;56.58;;;33.05;;
20824;SDS011;10573;50.936;6.978;2022-08-18T08:16:49;52.80;;;33.25;;
20824;SDS011;10573;50.936;6.978;2022-08-18T08:19:46;50.77;;;30.93;;
20824;SDS011;10573;50.936;6.978;2022-08-18T08:25:07;49.85;;;32.40;;
20824;SDS011;10573;50.936;6.978;2022-08-18T08:30:35;49.73;;;33.57;;
20824;SDS011;10573;50.936;6.978;2022-08-18T08:33:27;50.03;;;32.50;;
20824;SDS011;10573;50.936;6.978;2022-08-18T08:36:01;49.80;;;32.60;;
20824;SDS011;10573;50.936;6.978;2022-08-18T08:38:45;50.97;;;33.00;;
20824;SDS011;10573;50.936;6.978;2022-08-18T08:44:19;48.95;;;31.95;;
20824;SDS011;10573;50.936;6.978;2022-08-18T08:46:52;48.08;;;32.47;;
20824;SDS011;10573;50.936;6.978;2022-08-18T08:49:36;47.63;;;32.35;;
20824;SDS011;10573;50.936;6.978;2022-08-18T08:52:11;48.87;;;32.03;;
20824;SDS011;10573;50.936;6.978;2022-08-18T08:54:48;49.53;;;32.40;;
20824;SDS011;10573;50.936;6.978;2022-08-18T08:57:18;46.22;;;31.23;;
20824;SDS011;10573;50.936;6.978;2022-08-18T08:59:49;47.70;;;31.60;;
20824;SDS011;10573;50.936;6.978;2022-08-18T09:02:24;48.47;;;31.80;;
20824;SDS011;10573;50.936;6.978;2022-08-18T09:10:12;45.63;;;30.33;;
20824;SDS011;10573;50.936;6.978;2022-08-18T09:21:58;40.70;;;29.20;;
20824;SDS011;10573;50.936;6.978;2022-08-18T09:24:39;45.38;;;29.77;;
20824;SDS011;10573;50.936;6.978;2022-08-18T09:29:56;41.60;;;29.67;;
20824;SDS011;10573;50.936;6.978;2022-08-18T09:37:50;37.72;;;26.98;;
20824;SDS011;10573;50.936;6.978;2022-08-18T09:41:03;34.88;;;25.05;;
20824;SDS011;10573;50.936;6.978;2022-08-18T09:51:47;31.50;;;23.63;;
20824;SDS011;10573;50.936;6.978;2022-08-18T09:54:25;40.72;;;23.17;;
20824;SDS011;10573;50.936;6.978;2022-08-18T09:59:56;35.03;;;24.15;;
20824;SDS011;10573;50.936;6.978;2022-08-18T10:18:43;31.67;;;23.52;;
20824;SDS011;10573;50.936;6.978;2022-08-18T10:21:27;32.75;;;23.55;;
20824;SDS011;10573;50.936;6.978;2022-08-18T10:24:13;35.95;;;25.33;;
20824;SDS011;10573;50.936;6.978;2022-08-18T10:29:09;35.10;;;23.50;;
20824;SDS011;10573;50.936;6.978;2022-08-18T10:34:38;30.53;;;22.37;;
20824;SDS011;10573;50.936;6.978;2022-08-18T10:37:23;31.50;;;22.77;;
20824;SDS011;10573;50.936;6.978;2022-08-18T10:42:23;28.63;;;21.50;;
20824;SDS011;10573;50.936;6.978;2022-08-18T10:44:59;31.73;;;23.13;;
20824;SDS011;10573;50.936;6.978;2022-08-18T10:47:32;28.55;;;22.73;;
20824;SDS011;10573;50.936;6.978;2022-08-18T10:49:57;35.93;;;21.47;;
20824;SDS011;10573;50.936;6.978;2022-08-18T10:52:34;31.88;;;22.75;;
20824;SDS011;10573;50.936;6.978;2022-08-18T10:55:32;32.60;;;24.20;;
20824;SDS011;10573;50.936;6.978;2022-08-18T11:01:23;28.70;;;21.60;;
20824;SDS011;10573;50.936;6.978;2022-08-18T11:06:40;33.67;;;25.30;;
20824;SDS011;10573;50.936;6.978;2022-08-18T11:09:08;33.63;;;22.83;;
20824;SDS011;10573;50.936;6.978;2022-08-18T11:11:37;28.30;;;21.50;;
20824;SDS011;10573;50.936;6.978;2022-08-18T11:19:10;27.63;;;21.07;;
20824;SDS011;10573;50.936;6.978;2022-08-18T11:21:39;27.67;;;21.73;;
20824;SDS011;10573;50.936;6.978;2022-08-18T11:24:25;27.60;;;21.70;;
20824;SDS011;10573;50.936;6.978;2022-08-18T11:26:56;28.85;;;22.73;;
20824;SDS011;10573;50.936;6.978;2022-08-18T11:29:31;31.37;;;22.90;;
20824;SDS011;10573;50.936;6.978;2022-08-18T11:32:05;30.83;;;22.98;;
20824;SDS011;10573;50.936;6.978;2022-08-18T11:34:35;33.08;;;23.17;;
20824;SDS011;10573;50.936;6.978;2022-08-18T11:37:05;30.75;;;23.67;;
20824;SDS011;10573;50.936;6.978;2022-08-18T11:39:41;27.58;;;22.45;;
20824;SDS011;10573;50.936;6.978;2022-08-18T11:42:12;34.85;;;22.75;;
20824;SDS011;10573;50.936;6.978;2022-08-18T11:44:39;28.33;;;20.50;;
20824;SDS011;10573;50.936;6.978;2022-08-18T11:47:09;26.27;;;20.63;;
20824;SDS011;10573;50.936;6.978;2022-08-18T11:49:44;29.98;;;22.65;;
20824;SDS011;10573;50.936;6.978;2022-08-18T11:52:19;27.63;;;21.35;;
20824;SDS011;10573;50.936;6.978;2022-08-18T11:54:51;30.65;;;23.20;;
20824;SDS011;10573;50.936;6.978;2022-08-18T11:57:28;26.40;;;21.63;;
20824;SDS011;10573;50.936;6.978;2022-08-18T11:59:56;28.40;;;20.80;;
20824;SDS011;10573;50.936;6.978;2022-08-18T12:02:23;32.60;;;23.08;;
20824;SDS011;10573;50.936;6.978;2022-08-18T12:04:54;29.00;;;23.10;;
20824;SDS011;10573;50.936;6.978;2022-08-18T12:07:28;27.13;;;22.27;;
20824;SDS011;10573;50.936;6.978;2022-08-18T12:10:12;27.98;;;21.60;;
20824;SDS011;10573;50.936;6.978;2022-08-18T12:12:45;31.73;;;23.83;;
20824;SDS011;10573;50.936;6.978;2022-08-18T12:17:40;24.08;;;19.55;;
20824;SDS011;10573;50.936;6.978;2022-08-18T12:20:07;26.02;;;21.20;;
20824;SDS011;10573;50.936;6.978;2022-08-18T12:22:33;25.80;;;20.88;;
20824;SDS011;10573;50.936;6.978;2022-08-18T12:25:00;27.55;;;21.73;;
20824;SDS011;10573;50.936;6.978;2022-08-18T12:27:28;30.02;;;22.38;;
20824;SDS011;10573;50.936;6.978;2022-08-18T12:29:55;26.67;;;21.13;;
20824;SDS011;10573;50.936;6.978;2022-08-18T12:32:22;27.60;;;20.85;;
20824;SDS011;10573;50.936;6.978;2022-08-18T12:34:49;22.10;;;18.97;;
20824;SDS011;10573;50.936;6.978;2022-08-18T12:37:16;25.10;;;18.92;;
20824;SDS011;10573;50.936;6.978;2022-08-18T12:39:45;29.90;;;20.83;;
20824;SDS011;10573;50.936;6.978;2022-08-18T12:42:11;25.02;;;19.40;;
20824;SDS011;10573;50.936;6.978;2022-08-18T12:44:37;26.98;;;18.92;;
20824;SDS011;10573;50.936;6.978;2022-08-18T12:47:04;24.53;;;19.27;;
20824;SDS011;10573;50.936;6.978;2022-08-18T12:49:34;23.55;;;19.13;;
20824;SDS011;10573;50.936;6.978;2022-08-18T12:52:00;23.63;;;19.83;;
20824;SDS011;10573;50.936;6.978;2022-08-18T12:54:26;23.70;;;20.07;;
20824;SDS011;10573;50.936;6.978;2022-08-18T12:56:53;22.55;;;19.10;;
20824;SDS011;10573;50.936;6.978;2022-08-18T12:59:19;31.00;;;19.88;;
20824;SDS011;10573;50.936;6.978;2022-08-18T13:01:45;23.75;;;18.52;;
20824;SDS011;10573;50.936;6.978;2022-08-18T13:04:11;24.45;;;19.95;;
20824;SDS011;10573;50.936;6.978;2022-08-18T13:06:38;25.90;;;21.53;;
20824;SDS011;10573;50.936;6.978;2022-08-18T13:09:05;22.17;;;18.95;;
20824;SDS011;10573;50.936;6.978;2022-08-18T13:11:31;27.33;;;18.90;;
20824;SDS011;10573;50.936;6.978;2022-08-18T13:13:57;21.95;;;18.27;;
20824;SDS011;10573;50.936;6.978;2022-08-18T13:16:23;21.13;;;17.53;;
20824;SDS011;10573;50.936;6.978;2022-08-18T13:18:51;20.05;;;16.80;;
20824;SDS011;10573;50.936;6.978;2022-08-18T13:21:16;23.50;;;16.03;;
20824;SDS011;10573;50.936;6.978;2022-08-18T13:23:42;23.35;;;16.00;;
20824;SDS011;10573;50.936;6.978;2022-08-18T13:26:12;20.92;;;14.70;;
20824;SDS011;10573;50.936;6.978;2022-08-18T13:28:51;18.85;;;15.35;;
20824;SDS011;10573;50.936;6.978;2022-08-18T13:31:16;17.63;;;15.70;;
20824;SDS011;10573;50.936;6.978;2022-08-18T13:33:41;18.20;;;15.03;;
20824;SDS011;10573;50.936;6.978;2022-08-18T13:36:07;17.43;;;15.30;;
20824;SDS011;10573;50.936;6.978;2022-08-18T13:38:33;16.77;;;14.93;;
20824;SDS011;10573;50.936;6.978;2022-08-18T13:40:59;18.47;;;13.40;;
20824;SDS011;10573;50.936;6.978;2022-08-18T13:43:36;18.25;;;13.60;;
20824;SDS011;10573;50.936;6.978;2022-08-18T13:46:06;16.13;;;12.60;;
20824;SDS011;10573;50.936;6.978;2022-08-18T13:48:33;15.68;;;11.30;;
20824;SDS011;10573;50.936;6.978;2022-08-18T13:50:59;14.97;;;11.87;;
20824;SDS011;10573;50.936;6.978;2022-08-18T13:53:26;13.88;;;11.38;;
20824;SDS011;10573;50.936;6.978;2022-08-18T13:55:52;16.67;;;10.55;;
20824;SDS011;10573;50.936;6.978;2022-08-18T13:58:21;15.38;;;10.43;;
20824;SDS011;10573;50.936;6.978;2022-08-18T14:00:47;13.07;;;9.95;;
20824;SDS011;10573;50.936;6.978;2022-08-18T14:03:16;11.10;;;10.00;;
20824;SDS011;10573;50.936;6.978;2022-08-18T14:05:41;15.47;;;9.80;;
20824;SDS011;10573;50.936;6.978;2022-08-18T14:08:07;14.73;;;11.23;;
20824;SDS011;10573;50.936;6.978;2022-08-18T14:10:32;15.53;;;10.67;;
20824;SDS011;10573;50.936;6.978;2022-08-18T14:12:58;13.43;;;10.00;;
20824;SDS011;10573;50.936;6.978;2022-08-18T14:15:25;11.32;;;9.38;;
20824;SDS011;10573;50.936;6.978;2022-08-18T14:17:51;11.27;;;9.07;;
20824;SDS011;10573;50.936;6.978;2022-08-18T14:20:17;11.50;;;9.23;;
20824;SDS011;10573;50.936;6.978;2022-08-18T14:23:01;11.10;;;9.60;;
20824;SDS011;10573;50.936;6.978;2022-08-18T14:25:46;11.27;;;9.25;;
20824;SDS011;10573;50.936;6.978;2022-08-18T14:28:31;11.35;;;10.15;;
20824;SDS011;10573;50.936;6.978;2022-08-18T14:30:58;12.20;;;9.48;;
20824;SDS011;10573;50.936;6.978;2022-08-18T14:33:26;12.68;;;9.65;;
20824;SDS011;10573;50.936;6.978;2022-08-18T14:35:53;9.93;;;9.02;;
20824;SDS011;10573;50.936;6.978;2022-08-18T14:38:19;11.18;;;9.90;;
20824;SDS011;10573;50.936;6.978;2022-08-18T14:40:45;11.70;;;9.53;;
20824;SDS011;10573;50.936;6.978;2022-08-18T14:43:12;12.80;;;10.05;;
20824;SDS011;10573;50.936;6.978;2022-08-18T14:45:40;10.95;;;9.70;;
20824;SDS011;10573;50.936;6.978;2022-08-18T14:48:09;9.75;;;8.75;;
20824;SDS011;10573;50.936;6.978;2022-08-18T14:50:35;9.97;;;8.97;;
20824;SDS011;10573;50.936;6.978;2022-08-18T14:53:00;8.80;;;7.90;;
20824;SDS011;10573;50.936;6.978;2022-08-18T14:55:26;11.23;;;7.80;;
20824;SDS011;10573;50.936;6.978;2022-08-18T14:57:51;9.30;;;8.40;;
20824;SDS011;10573;50.936;6.978;2022-08-18T15:00:18;9.87;;;7.57;;
20824;SDS011;10573;50.936;6.978;2022-08-18T15:02:44;10.25;;;7.85;;
20824;SDS011;10573;50.936;6.978;2022-08-18T15:05:13;9.15;;;7.82;;
20824;SDS011;10573;50.936;6.978;2022-08-18T15:07:39;9.10;;;8.20;;
20824;SDS011;10573;50.936;6.978;2022-08-18T15:10:06;8.48;;;7.63;;
20824;SDS011;10573;50.936;6.978;2022-08-18T15:12:34;10.48;;;8.27;;
20824;SDS011;10573;50.936;6.978;2022-08-18T15:15:01;9.80;;;8.88;;
20824;SDS011;10573;50.936;6.978;2022-08-18T15:17:28;9.98;;;7.88;;
20824;SDS011;10573;50.936;6.978;2022-08-18T15:19:53;8.95;;;8.05;;
20824;SDS011;10573;50.936;6.978;2022-08-18T15:22:19;12.00;;;8.50;;
20824;SDS011;10573;50.936;6.978;2022-08-18T15:25:04;9.63;;;8.57;;
20824;SDS011;10573;50.936;6.978;2022-08-18T15:27:49;9.70;;;8.40;;
20824;SDS011;10573;50.936;6.978;2022-08-18T15:30:15;9.90;;;8.50;;
20824;SDS011;10573;50.936;6.978;2022-08-18T15:32:41;13.57;;;10.30;;
20824;SDS011;10573;50.936;6.978;2022-08-18T15:35:09;10.43;;;9.35;;
20824;SDS011;10573;50.936;6.978;2022-08-18T15:37:36;10.30;;;9.30;;
20824;SDS011;10573;50.936;6.978;2022-08-18T15:40:10;10.90;;;9.85;;
20824;SDS011;10573;50.936;6.978;2022-08-18T15:42:41;11.23;;;10.07;;
20824;SDS011;10573;50.936;6.978;2022-08-18T15:45:10;12.05;;;9.98;;
20824;SDS011;10573;50.936;6.978;2022-08-18T15:47:40;10.00;;;9.00;;
20824;SDS011;10573;50.936;6.978;2022-08-18T15:50:06;11.05;;;9.50;;
20824;SDS011;10573;50.936;6.978;2022-08-18T15:52:32;11.17;;;10.10;;
20824;SDS011;10573;50.936;6.978;2022-08-18T15:54:59;11.07;;;9.88;;
20824;SDS011;10573;50.936;6.978;2022-08-18T15:57:25;10.43;;;9.43;;
20824;SDS011;10573;50.936;6.978;2022-08-18T15:59:50;10.23;;;9.13;;
20824;SDS011;10573;50.936;6.978;2022-08-18T16:02:16;11.15;;;10.07;;
20824;SDS011;10573;50.936;6.978;2022-08-18T16:04:42;10.70;;;9.57;;
20824;SDS011;10573;50.936;6.978;2022-08-18T16:07:07;10.80;;;9.60;;
20824;SDS011;10573;50.936;6.978;2022-08-18T16:09:33;11.30;;;9.33;;
20824;SDS011;10573;50.936;6.978;2022-08-18T16:11:59;10.48;;;9.38;;
20824;SDS011;10573;50.936;6.978;2022-08-18T16:14:24;11.63;;;10.10;;
20824;SDS011;10573;50.936;6.978;2022-08-18T16:16:50;11.60;;;9.90;;
20824;SDS011;10573;50.936;6.978;2022-08-18T16:19:15;11.40;;;9.97;;
20824;SDS011;10573;50.936;6.978;2022-08-18T16:21:40;11.07;;;9.60;;
20824;SDS011;10573;50.936;6.978;2022-08-18T16:24:06;11.53;;;9.57;;
20824;SDS011;10573;50.936;6.978;2022-08-18T16:26:32;11.45;;;10.32;;
20824;SDS011;10573;50.936;6.978;2022-08-18T16:28:57;11.30;;;10.13;;
20824;SDS011;10573;50.936;6.978;2022-08-18T16:31:24;12.80;;;11.53;;
20824;SDS011;10573;50.936;6.978;2022-08-18T16:33:53;13.45;;;11.60;;
20824;SDS011;10573;50.936;6.978;2022-08-18T16:36:20;13.40;;;12.00;;
20824;SDS011;10573;50.936;6.978;2022-08-18T16:38:49;14.15;;;11.60;;
20824;SDS011;10573;50.936;6.978;2022-08-18T16:41:15;13.88;;;12.48;;
20824;SDS011;10573;50.936;6.978;2022-08-18T16:43:42;13.63;;;12.27;;
20824;SDS011;10573;50.936;6.978;2022-08-18T16:46:13;13.55;;;11.90;;
20824;SDS011;10573;50.936;6.978;2022-08-18T16:48:41;13.93;;;12.05;;